sensor_id;sensor_type;location;lat;lon;timestamp;temperature;humidity
3846;DHT22;1938;50.812;7.738;2022-12-11T00:02:02;-2.90;99.90
3846;DHT22;1938;50.812;7.738;2022-12-11T00:04:28;-2.70;99.90
3846;DHT22;1938;50.812;7.738;2022-12-11T00:06:55;-2.80;99.90
3846;DHT22;1938;50.812;7.738;2022-12-11T00:09:21;-3.00;99.90
3846;DHT22;1938;50.812;7.738;2022-12-11T00:11:47;-2.90;99.90
3846;DHT22;1938;50.812;7.738;2022-12-11T00:14:13;-2.90;99.90
3846;DHT22;1938;50.812;7.738;2022-12-11T00:16:40;-2.80;99.90
3846;DHT22;1938;50.812;7.738;2022-12-11T00:19:06;-3.00;99.90
3846;DHT22;1938;50.812;7.738;2022-12-11T00:21:32;-3.10;99.90
3846;DHT22;1938;50.812;7.738;2022-12-11T00:23:58;-3.00;99.90
3846;DHT22;1938;50.812;7.738;2022-12-11T00:26:25;-2.90;99.90
3846;DHT22;1938;50.812;7.738;2022-12-11T00:28:53;-3.00;99.90
3846;DHT22;1938;50.812;7.738;2022-12-11T00:31:19;-2.80;99.90
3846;DHT22;1938;50.812;7.738;2022-12-11T00:33:47;-2.80;99.90
3846;DHT22;1938;50.812;7.738;2022-12-11T00:36:15;-2.80;99.90
3846;DHT22;1938;50.812;7.738;2022-12-11T00:38:41;-2.60;99.90
3846;DHT22;1938;50.812;7.738;2022-12-11T00:41:08;-2.50;99.90
3846;DHT22;1938;50.812;7.738;2022-12-11T00:43:34;-2.70;99.90
3846;DHT22;1938;50.812;7.738;2022-12-11T00:46:00;-2.80;99.90
3846;DHT22;1938;50.812;7.738;2022-12-11T00:48:26;-2.80;99.90
3846;DHT22;1938;50.812;7.738;2022-12-11T00:50:52;-2.80;99.90
3846;DHT22;1938;50.812;7.738;2022-12-11T00:53:17;-2.80;99.90
3846;DHT22;1938;50.812;7.738;2022-12-11T00:55:44;-2.90;99.90
3846;DHT22;1938;50.812;7.738;2022-12-11T00:58:10;-2.90;99.90
3846;DHT22;1938;50.812;7.738;2022-12-11T01:00:37;-2.80;99.90
3846;DHT22;1938;50.812;7.738;2022-12-11T01:03:04;-2.80;99.90
3846;DHT22;1938;50.812;7.738;2022-12-11T01:05:30;-2.50;99.90
3846;DHT22;1938;50.812;7.738;2022-12-11T01:07:56;-2.60;99.90
3846;DHT22;1938;50.812;7.738;2022-12-11T01:10:21;-2.60;99.90
3846;DHT22;1938;50.812;7.738;2022-12-11T01:13:01;-2.70;99.90
3846;DHT22;1938;50.812;7.738;2022-12-11T01:15:29;-2.70;99.90
3846;DHT22;1938;50.812;7.738;2022-12-11T01:17:55;-2.70;99.90
3846;DHT22;1938;50.812;7.738;2022-12-11T01:20:21;-2.70;99.90
3846;DHT22;1938;50.812;7.738;2022-12-11T01:22:47;-2.80;99.90
3846;DHT22;1938;50.812;7.738;2022-12-11T01:25:16;-2.80;99.90
3846;DHT22;1938;50.812;7.738;2022-12-11T01:27:41;-2.80;99.90
3846;DHT22;1938;50.812;7.738;2022-12-11T01:30:13;-2.80;99.90
3846;DHT22;1938;50.812;7.738;2022-12-11T01:32:38;-2.90;99.90
3846;DHT22;1938;50.812;7.738;2022-12-11T01:35:06;-2.90;99.90
3846;DHT22;1938;50.812;7.738;2022-12-11T01:37:33;-2.70;99.90
3846;DHT22;1938;50.812;7.738;2022-12-11T01:39:59;-2.50;99.90
3846;DHT22;1938;50.812;7.738;2022-12-11T01:42:26;-2.60;99.90
3846;DHT22;1938;50.812;7.738;2022-12-11T01:47:49;-2.80;99.90
3846;DHT22;1938;50.812;7.738;2022-12-11T01:50:16;-2.80;99.90
3846;DHT22;1938;50.812;7.738;2022-12-11T01:52:46;-2.70;99.90
3846;DHT22;1938;50.812;7.738;2022-12-11T01:55:12;-2.90;99.90
3846;DHT22;1938;50.812;7.738;2022-12-11T01:57:41;-2.90;99.90
3846;DHT22;1938;50.812;7.738;2022-12-11T02:00:08;-2.90;99.90
3846;DHT22;1938;50.812;7.738;2022-12-11T02:02:34;-2.80;99.90
3846;DHT22;1938;50.812;7.738;2022-12-11T02:05:04;-2.70;99.90
3846;DHT22;1938;50.812;7.738;2022-12-11T02:07:42;-2.60;99.90
3846;DHT22;1938;50.812;7.738;2022-12-11T02:10:10;-2.70;99.90
3846;DHT22;1938;50.812;7.738;2022-12-11T02:21:01;-2.30;99.90
3846;DHT22;1938;50.812;7.738;2022-12-11T02:24:25;-2.40;99.90
3846;DHT22;1938;50.812;7.738;2022-12-11T02:32:15;-2.50;99.90
3846;DHT22;1938;50.812;7.738;2022-12-11T02:37:33;-2.50;99.90
3846;DHT22;1938;50.812;7.738;2022-12-11T02:40:02;-2.50;99.90
3846;DHT22;1938;50.812;7.738;2022-12-11T02:42:30;-2.50;99.90
3846;DHT22;1938;50.812;7.738;2022-12-11T02:44:59;-2.50;99.90
3846;DHT22;1938;50.812;7.738;2022-12-11T02:47:26;-2.50;99.90
3846;DHT22;1938;50.812;7.738;2022-12-11T02:49:54;-2.60;99.90
3846;DHT22;1938;50.812;7.738;2022-12-11T02:52:22;-2.50;99.90
3846;DHT22;1938;50.812;7.738;2022-12-11T02:54:51;-2.90;99.90
3846;DHT22;1938;50.812;7.738;2022-12-11T02:57:32;-3.40;99.90
3846;DHT22;1938;50.812;7.738;2022-12-11T02:59:59;-4.00;99.90
3846;DHT22;1938;50.812;7.738;2022-12-11T03:02:25;-3.80;99.90
3846;DHT22;1938;50.812;7.738;2022-12-11T03:04:51;-3.50;99.90
3846;DHT22;1938;50.812;7.738;2022-12-11T03:07:27;-2.70;99.90
3846;DHT22;1938;50.812;7.738;2022-12-11T03:09:54;-2.50;99.90
3846;DHT22;1938;50.812;7.738;2022-12-11T03:12:24;-2.50;99.90
3846;DHT22;1938;50.812;7.738;2022-12-11T03:14:52;-2.50;99.90
3846;DHT22;1938;50.812;7.738;2022-12-11T03:17:23;-2.50;99.90
3846;DHT22;1938;50.812;7.738;2022-12-11T03:25:28;-2.50;99.90
3846;DHT22;1938;50.812;7.738;2022-12-11T03:28:08;-2.40;99.90
3846;DHT22;1938;50.812;7.738;2022-12-11T03:30:36;-2.40;99.90
3846;DHT22;1938;50.812;7.738;2022-12-11T03:33:14;-2.30;99.90
3846;DHT22;1938;50.812;7.738;2022-12-11T03:35:44;-2.20;99.90
3846;DHT22;1938;50.812;7.738;2022-12-11T03:38:17;-2.20;99.90
3846;DHT22;1938;50.812;7.738;2022-12-11T03:40:48;-2.20;99.90
3846;DHT22;1938;50.812;7.738;2022-12-11T03:43:16;-2.20;99.90
3846;DHT22;1938;50.812;7.738;2022-12-11T03:45:42;-2.20;99.90
3846;DHT22;1938;50.812;7.738;2022-12-11T03:48:11;-2.40;99.90
3846;DHT22;1938;50.812;7.738;2022-12-11T03:50:38;-2.40;99.90
3846;DHT22;1938;50.812;7.738;2022-12-11T03:53:05;-2.10;99.90
3846;DHT22;1938;50.812;7.738;2022-12-11T03:55:35;-2.30;99.90
3846;DHT22;1938;50.812;7.738;2022-12-11T03:58:02;-2.40;99.90
3846;DHT22;1938;50.812;7.738;2022-12-11T04:00:28;-2.50;99.90
3846;DHT22;1938;50.812;7.738;2022-12-11T04:02:54;-2.40;99.90
3846;DHT22;1938;50.812;7.738;2022-12-11T04:05:43;-2.50;99.90
3846;DHT22;1938;50.812;7.738;2022-12-11T04:08:09;-2.50;99.90
3846;DHT22;1938;50.812;7.738;2022-12-11T04:10:35;-2.50;99.90
3846;DHT22;1938;50.812;7.738;2022-12-11T04:13:00;-2.60;99.90
3846;DHT22;1938;50.812;7.738;2022-12-11T04:15:26;-2.50;99.90
3846;DHT22;1938;50.812;7.738;2022-12-11T04:17:52;-2.50;99.90
3846;DHT22;1938;50.812;7.738;2022-12-11T04:20:37;-2.50;99.90
3846;DHT22;1938;50.812;7.738;2022-12-11T04:23:22;-2.50;99.90
3846;DHT22;1938;50.812;7.738;2022-12-11T04:26:17;-3.00;99.90
3846;DHT22;1938;50.812;7.738;2022-12-11T04:28:44;-3.10;99.90
3846;DHT22;1938;50.812;7.738;2022-12-11T04:31:15;-3.60;99.90
3846;DHT22;1938;50.812;7.738;2022-12-11T04:33:41;-4.00;99.90
3846;DHT22;1938;50.812;7.738;2022-12-11T04:36:07;-3.40;99.90
3846;DHT22;1938;50.812;7.738;2022-12-11T04:38:33;-2.70;99.90
3846;DHT22;1938;50.812;7.738;2022-12-11T04:41:00;-2.50;99.90
3846;DHT22;1938;50.812;7.738;2022-12-11T04:43:27;-2.40;99.90
3846;DHT22;1938;50.812;7.738;2022-12-11T04:46:07;-2.20;99.90
3846;DHT22;1938;50.812;7.738;2022-12-11T04:48:34;-2.10;99.90
3846;DHT22;1938;50.812;7.738;2022-12-11T04:50:59;-1.90;99.90
3846;DHT22;1938;50.812;7.738;2022-12-11T04:53:26;-1.70;99.90
3846;DHT22;1938;50.812;7.738;2022-12-11T04:55:51;-1.60;99.90
3846;DHT22;1938;50.812;7.738;2022-12-11T04:58:17;-1.40;99.90
3846;DHT22;1938;50.812;7.738;2022-12-11T05:00:43;-1.30;99.90
3846;DHT22;1938;50.812;7.738;2022-12-11T05:03:09;-1.20;99.90
3846;DHT22;1938;50.812;7.738;2022-12-11T05:05:36;-1.10;99.90
3846;DHT22;1938;50.812;7.738;2022-12-11T05:08:04;-1.60;99.90
3846;DHT22;1938;50.812;7.738;2022-12-11T05:10:33;-1.90;99.90
3846;DHT22;1938;50.812;7.738;2022-12-11T05:12:58;-2.00;99.90
3846;DHT22;1938;50.812;7.738;2022-12-11T05:15:25;-2.10;99.90
3846;DHT22;1938;50.812;7.738;2022-12-11T05:17:51;-2.10;99.90
3846;DHT22;1938;50.812;7.738;2022-12-11T05:20:22;-2.10;99.90
3846;DHT22;1938;50.812;7.738;2022-12-11T05:22:48;-1.90;99.90
3846;DHT22;1938;50.812;7.738;2022-12-11T05:25:13;-1.60;99.90
3846;DHT22;1938;50.812;7.738;2022-12-11T05:27:39;-1.50;99.90
3846;DHT22;1938;50.812;7.738;2022-12-11T05:30:05;-0.90;99.90
3846;DHT22;1938;50.812;7.738;2022-12-11T05:32:32;-1.00;99.90
3846;DHT22;1938;50.812;7.738;2022-12-11T05:34:57;-1.20;99.90
3846;DHT22;1938;50.812;7.738;2022-12-11T05:37:23;-1.30;99.90
3846;DHT22;1938;50.812;7.738;2022-12-11T05:39:48;-1.50;99.90
3846;DHT22;1938;50.812;7.738;2022-12-11T05:42:14;-1.40;99.90
3846;DHT22;1938;50.812;7.738;2022-12-11T05:44:41;-1.30;99.90
3846;DHT22;1938;50.812;7.738;2022-12-11T05:47:06;-1.50;99.90
3846;DHT22;1938;50.812;7.738;2022-12-11T05:49:32;-1.40;99.90
3846;DHT22;1938;50.812;7.738;2022-12-11T05:51:57;-1.70;99.90
3846;DHT22;1938;50.812;7.738;2022-12-11T05:54:23;-1.90;99.90
3846;DHT22;1938;50.812;7.738;2022-12-11T05:56:48;-2.10;99.90
3846;DHT22;1938;50.812;7.738;2022-12-11T05:59:15;-2.20;99.90
3846;DHT22;1938;50.812;7.738;2022-12-11T06:01:41;-2.80;99.90
3846;DHT22;1938;50.812;7.738;2022-12-11T06:04:09;-3.30;99.90
3846;DHT22;1938;50.812;7.738;2022-12-11T06:06:36;-2.90;99.90
3846;DHT22;1938;50.812;7.738;2022-12-11T06:09:02;-2.30;99.90
3846;DHT22;1938;50.812;7.738;2022-12-11T06:11:29;-2.20;99.90
3846;DHT22;1938;50.812;7.738;2022-12-11T06:13:55;-2.20;99.90
3846;DHT22;1938;50.812;7.738;2022-12-11T06:16:23;-2.30;99.90
3846;DHT22;1938;50.812;7.738;2022-12-11T06:18:49;-2.30;99.90
3846;DHT22;1938;50.812;7.738;2022-12-11T06:23:43;-2.40;99.90
3846;DHT22;1938;50.812;7.738;2022-12-11T06:26:09;-2.40;99.90
3846;DHT22;1938;50.812;7.738;2022-12-11T06:28:35;-2.30;99.90
3846;DHT22;1938;50.812;7.738;2022-12-11T06:31:01;-2.20;99.90
3846;DHT22;1938;50.812;7.738;2022-12-11T06:33:27;-2.10;99.90
3846;DHT22;1938;50.812;7.738;2022-12-11T06:35:53;-2.00;99.90
3846;DHT22;1938;50.812;7.738;2022-12-11T06:38:18;-2.10;99.90
3846;DHT22;1938;50.812;7.738;2022-12-11T06:40:45;-2.10;99.90
3846;DHT22;1938;50.812;7.738;2022-12-11T06:43:18;-2.10;99.90
3846;DHT22;1938;50.812;7.738;2022-12-11T06:45:43;-2.10;99.90
3846;DHT22;1938;50.812;7.738;2022-12-11T06:48:09;-2.40;99.90
3846;DHT22;1938;50.812;7.738;2022-12-11T06:50:37;-2.20;99.90
3846;DHT22;1938;50.812;7.738;2022-12-11T06:53:03;-1.90;99.90
3846;DHT22;1938;50.812;7.738;2022-12-11T06:55:28;-1.70;99.90
3846;DHT22;1938;50.812;7.738;2022-12-11T06:57:54;-1.50;99.90
3846;DHT22;1938;50.812;7.738;2022-12-11T07:00:19;-1.30;99.90
3846;DHT22;1938;50.812;7.738;2022-12-11T07:02:45;-1.20;99.90
3846;DHT22;1938;50.812;7.738;2022-12-11T07:05:10;-1.10;99.90
3846;DHT22;1938;50.812;7.738;2022-12-11T07:07:36;-1.00;99.90
3846;DHT22;1938;50.812;7.738;2022-12-11T07:10:02;-0.80;99.90
3846;DHT22;1938;50.812;7.738;2022-12-11T07:12:28;-0.70;99.90
3846;DHT22;1938;50.812;7.738;2022-12-11T07:14:54;-0.70;99.90
3846;DHT22;1938;50.812;7.738;2022-12-11T07:17:19;-0.60;99.90
3846;DHT22;1938;50.812;7.738;2022-12-11T07:19:45;-0.50;99.90
3846;DHT22;1938;50.812;7.738;2022-12-11T07:22:10;-0.40;99.90
3846;DHT22;1938;50.812;7.738;2022-12-11T07:24:36;-0.40;99.90
3846;DHT22;1938;50.812;7.738;2022-12-11T07:27:03;-0.40;99.90
3846;DHT22;1938;50.812;7.738;2022-12-11T07:29:29;-0.40;99.90
3846;DHT22;1938;50.812;7.738;2022-12-11T07:31:54;-0.40;99.90
3846;DHT22;1938;50.812;7.738;2022-12-11T07:34:20;-0.40;99.90
3846;DHT22;1938;50.812;7.738;2022-12-11T07:36:45;-0.40;99.90
3846;DHT22;1938;50.812;7.738;2022-12-11T07:39:11;-0.30;99.90
3846;DHT22;1938;50.812;7.738;2022-12-11T07:41:37;-0.30;99.90
3846;DHT22;1938;50.812;7.738;2022-12-11T07:44:03;-0.30;99.90
3846;DHT22;1938;50.812;7.738;2022-12-11T07:46:31;-0.40;99.90
3846;DHT22;1938;50.812;7.738;2022-12-11T07:48:58;-0.40;99.90
3846;DHT22;1938;50.812;7.738;2022-12-11T07:51:32;-0.40;99.90
3846;DHT22;1938;50.812;7.738;2022-12-11T07:54:02;-0.40;99.90
3846;DHT22;1938;50.812;7.738;2022-12-11T07:56:29;-0.50;99.90
3846;DHT22;1938;50.812;7.738;2022-12-11T07:58:55;-0.50;99.90
3846;DHT22;1938;50.812;7.738;2022-12-11T08:01:22;-0.60;99.90
3846;DHT22;1938;50.812;7.738;2022-12-11T08:03:48;-0.50;99.90
3846;DHT22;1938;50.812;7.738;2022-12-11T08:06:15;-0.60;99.90
3846;DHT22;1938;50.812;7.738;2022-12-11T08:08:42;-0.60;99.90
3846;DHT22;1938;50.812;7.738;2022-12-11T08:11:10;-1.30;99.90
3846;DHT22;1938;50.812;7.738;2022-12-11T08:13:37;-1.60;99.90
3846;DHT22;1938;50.812;7.738;2022-12-11T08:16:07;-1.80;99.90
3846;DHT22;1938;50.812;7.738;2022-12-11T08:18:34;-1.90;99.90
3846;DHT22;1938;50.812;7.738;2022-12-11T08:21:07;-1.90;99.90
3846;DHT22;1938;50.812;7.738;2022-12-11T08:23:33;-2.00;99.90
3846;DHT22;1938;50.812;7.738;2022-12-11T08:26:02;-2.10;99.90
3846;DHT22;1938;50.812;7.738;2022-12-11T08:28:28;-2.10;99.90
3846;DHT22;1938;50.812;7.738;2022-12-11T08:30:54;-2.10;99.90
3846;DHT22;1938;50.812;7.738;2022-12-11T08:33:19;-2.00;99.90
3846;DHT22;1938;50.812;7.738;2022-12-11T08:35:45;-2.00;99.90
3846;DHT22;1938;50.812;7.738;2022-12-11T08:38:10;-2.40;99.90
3846;DHT22;1938;50.812;7.738;2022-12-11T08:40:36;-2.20;99.90
3846;DHT22;1938;50.812;7.738;2022-12-11T08:43:02;-1.80;99.90
3846;DHT22;1938;50.812;7.738;2022-12-11T08:45:28;-2.00;99.90
3846;DHT22;1938;50.812;7.738;2022-12-11T08:47:54;-2.00;99.90
3846;DHT22;1938;50.812;7.738;2022-12-11T08:50:20;-2.10;99.90
3846;DHT22;1938;50.812;7.738;2022-12-11T08:52:45;-2.00;99.90
3846;DHT22;1938;50.812;7.738;2022-12-11T08:55:11;-2.10;99.90
3846;DHT22;1938;50.812;7.738;2022-12-11T08:57:37;-2.00;99.90
3846;DHT22;1938;50.812;7.738;2022-12-11T09:00:07;-2.00;99.90
3846;DHT22;1938;50.812;7.738;2022-12-11T09:02:33;-1.90;99.90
3846;DHT22;1938;50.812;7.738;2022-12-11T09:04:59;-1.80;99.90
3846;DHT22;1938;50.812;7.738;2022-12-11T09:07:25;-1.90;99.90
3846;DHT22;1938;50.812;7.738;2022-12-11T09:09:53;-1.90;99.90
3846;DHT22;1938;50.812;7.738;2022-12-11T09:12:20;-1.80;99.90
3846;DHT22;1938;50.812;7.738;2022-12-11T09:14:45;-1.80;99.90
3846;DHT22;1938;50.812;7.738;2022-12-11T09:17:11;-1.60;99.90
3846;DHT22;1938;50.812;7.738;2022-12-11T09:19:36;-1.60;99.90
3846;DHT22;1938;50.812;7.738;2022-12-11T09:22:02;-1.80;99.90
3846;DHT22;1938;50.812;7.738;2022-12-11T09:24:27;-1.90;99.90
3846;DHT22;1938;50.812;7.738;2022-12-11T09:26:53;-1.80;99.90
3846;DHT22;1938;50.812;7.738;2022-12-11T09:29:19;-1.80;99.90
3846;DHT22;1938;50.812;7.738;2022-12-11T09:31:44;-1.80;99.90
3846;DHT22;1938;50.812;7.738;2022-12-11T09:34:12;-1.80;99.90
3846;DHT22;1938;50.812;7.738;2022-12-11T09:36:39;-1.80;99.90
3846;DHT22;1938;50.812;7.738;2022-12-11T09:39:06;-1.90;99.90
3846;DHT22;1938;50.812;7.738;2022-12-11T09:46:58;-1.80;99.90
3846;DHT22;1938;50.812;7.738;2022-12-11T09:49:36;-1.80;99.90
3846;DHT22;1938;50.812;7.738;2022-12-11T09:52:20;-1.60;99.90
3846;DHT22;1938;50.812;7.738;2022-12-11T09:54:55;-1.30;99.90
3846;DHT22;1938;50.812;7.738;2022-12-11T09:57:30;-1.60;99.90
3846;DHT22;1938;50.812;7.738;2022-12-11T10:14:58;-1.70;99.90
3846;DHT22;1938;50.812;7.738;2022-12-11T10:17:33;-1.80;99.90
3846;DHT22;1938;50.812;7.738;2022-12-11T10:20:22;-1.80;99.90
3846;DHT22;1938;50.812;7.738;2022-12-11T10:22:49;-1.80;99.90
3846;DHT22;1938;50.812;7.738;2022-12-11T10:25:24;-1.70;99.90
3846;DHT22;1938;50.812;7.738;2022-12-11T10:27:50;-1.50;99.90
3846;DHT22;1938;50.812;7.738;2022-12-11T10:30:21;-1.30;99.90
3846;DHT22;1938;50.812;7.738;2022-12-11T10:35:44;-0.80;99.90
3846;DHT22;1938;50.812;7.738;2022-12-11T10:40:44;-0.40;99.90
3846;DHT22;1938;50.812;7.738;2022-12-11T10:43:10;-0.30;99.90
3846;DHT22;1938;50.812;7.738;2022-12-11T10:45:37;-0.20;99.90
3846;DHT22;1938;50.812;7.738;2022-12-11T10:48:09;0.00;99.90
3846;DHT22;1938;50.812;7.738;2022-12-11T10:50:35;0.10;99.90
3846;DHT22;1938;50.812;7.738;2022-12-11T10:53:02;0.20;99.90
3846;DHT22;1938;50.812;7.738;2022-12-11T10:55:32;0.30;99.90
3846;DHT22;1938;50.812;7.738;2022-12-11T10:58:04;0.40;99.90
3846;DHT22;1938;50.812;7.738;2022-12-11T11:00:38;0.50;99.90
3846;DHT22;1938;50.812;7.738;2022-12-11T11:03:18;0.60;99.90
3846;DHT22;1938;50.812;7.738;2022-12-11T11:05:44;0.70;99.90
3846;DHT22;1938;50.812;7.738;2022-12-11T11:08:20;0.50;99.90
3846;DHT22;1938;50.812;7.738;2022-12-11T11:10:54;0.50;99.90
3846;DHT22;1938;50.812;7.738;2022-12-11T11:13:23;0.40;99.90
3846;DHT22;1938;50.812;7.738;2022-12-11T11:16:06;0.50;99.90
3846;DHT22;1938;50.812;7.738;2022-12-11T11:18:34;0.60;99.90
3846;DHT22;1938;50.812;7.738;2022-12-11T11:21:00;0.70;99.90
3846;DHT22;1938;50.812;7.738;2022-12-11T11:23:26;0.70;99.90
3846;DHT22;1938;50.812;7.738;2022-12-11T11:25:59;0.70;99.90
3846;DHT22;1938;50.812;7.738;2022-12-11T11:28:34;0.70;99.90
3846;DHT22;1938;50.812;7.738;2022-12-11T11:31:10;0.60;99.90
3846;DHT22;1938;50.812;7.738;2022-12-11T11:33:59;0.70;99.90
3846;DHT22;1938;50.812;7.738;2022-12-11T11:36:30;0.70;99.90
3846;DHT22;1938;50.812;7.738;2022-12-11T11:39:05;0.70;99.90
3846;DHT22;1938;50.812;7.738;2022-12-11T11:44:21;-0.60;99.90
3846;DHT22;1938;50.812;7.738;2022-12-11T11:46:58;-0.70;99.90
3846;DHT22;1938;50.812;7.738;2022-12-11T11:49:48;-0.90;99.90
3846;DHT22;1938;50.812;7.738;2022-12-11T11:52:23;-1.10;99.90
3846;DHT22;1938;50.812;7.738;2022-12-11T12:00:23;-1.10;99.90
3846;DHT22;1938;50.812;7.738;2022-12-11T12:02:53;-1.20;99.90
3846;DHT22;1938;50.812;7.738;2022-12-11T12:05:34;-1.20;99.90
3846;DHT22;1938;50.812;7.738;2022-12-11T12:08:21;-1.10;99.90
3846;DHT22;1938;50.812;7.738;2022-12-11T12:13:50;-1.20;99.90
3846;DHT22;1938;50.812;7.738;2022-12-11T12:16:24;-1.30;99.90
3846;DHT22;1938;50.812;7.738;2022-12-11T12:21:36;-1.30;99.90
3846;DHT22;1938;50.812;7.738;2022-12-11T12:24:28;-1.30;99.90
3846;DHT22;1938;50.812;7.738;2022-12-11T12:27:19;-1.20;99.90
3846;DHT22;1938;50.812;7.738;2022-12-11T12:30:02;-1.30;99.90
3846;DHT22;1938;50.812;7.738;2022-12-11T12:38:01;-1.10;99.90
3846;DHT22;1938;50.812;7.738;2022-12-11T12:43:34;-1.00;99.90
3846;DHT22;1938;50.812;7.738;2022-12-11T12:48:54;-0.90;99.90
3846;DHT22;1938;50.812;7.738;2022-12-11T12:51:21;-1.00;99.90
3846;DHT22;1938;50.812;7.738;2022-12-11T12:53:53;-0.90;99.90
3846;DHT22;1938;50.812;7.738;2022-12-11T12:56:20;-1.00;99.90
3846;DHT22;1938;50.812;7.738;2022-12-11T12:58:46;-1.00;99.90
3846;DHT22;1938;50.812;7.738;2022-12-11T13:01:19;-1.10;99.90
3846;DHT22;1938;50.812;7.738;2022-12-11T13:04:05;-1.00;99.90
3846;DHT22;1938;50.812;7.738;2022-12-11T13:06:40;-0.90;99.90
3846;DHT22;1938;50.812;7.738;2022-12-11T13:11:44;-1.20;99.90
3846;DHT22;1938;50.812;7.738;2022-12-11T13:16:46;-1.20;99.90
3846;DHT22;1938;50.812;7.738;2022-12-11T13:27:23;-1.10;99.90
3846;DHT22;1938;50.812;7.738;2022-12-11T13:29:49;-0.80;99.90
3846;DHT22;1938;50.812;7.738;2022-12-11T13:34:44;-1.10;99.90
3846;DHT22;1938;50.812;7.738;2022-12-11T13:37:28;-1.20;99.90
3846;DHT22;1938;50.812;7.738;2022-12-11T13:39:56;-1.20;99.90
3846;DHT22;1938;50.812;7.738;2022-12-11T13:42:31;-1.20;99.90
3846;DHT22;1938;50.812;7.738;2022-12-11T13:44:58;-1.10;99.90
3846;DHT22;1938;50.812;7.738;2022-12-11T13:47:24;-1.20;99.90
3846;DHT22;1938;50.812;7.738;2022-12-11T13:49:56;-1.10;99.90
3846;DHT22;1938;50.812;7.738;2022-12-11T13:52:24;-1.10;99.90
3846;DHT22;1938;50.812;7.738;2022-12-11T13:54:53;-1.10;99.90
3846;DHT22;1938;50.812;7.738;2022-12-11T13:57:24;-1.10;99.90
3846;DHT22;1938;50.812;7.738;2022-12-11T13:59:57;-1.00;99.90
3846;DHT22;1938;50.812;7.738;2022-12-11T14:02:34;-1.00;99.90
3846;DHT22;1938;50.812;7.738;2022-12-11T14:05:07;-0.90;99.90
3846;DHT22;1938;50.812;7.738;2022-12-11T14:07:47;-0.90;99.90
3846;DHT22;1938;50.812;7.738;2022-12-11T14:12:43;-1.20;99.90
3846;DHT22;1938;50.812;7.738;2022-12-11T14:15:12;-1.10;99.90
3846;DHT22;1938;50.812;7.738;2022-12-11T14:17:41;-1.20;99.90
3846;DHT22;1938;50.812;7.738;2022-12-11T14:20:17;-1.10;99.90
3846;DHT22;1938;50.812;7.738;2022-12-11T14:22:43;-1.20;99.90
3846;DHT22;1938;50.812;7.738;2022-12-11T14:25:23;-1.10;99.90
3846;DHT22;1938;50.812;7.738;2022-12-11T14:27:53;-1.10;99.90
3846;DHT22;1938;50.812;7.738;2022-12-11T14:30:27;-1.00;99.90
3846;DHT22;1938;50.812;7.738;2022-12-11T14:32:59;-1.00;99.90
3846;DHT22;1938;50.812;7.738;2022-12-11T14:35:32;-1.00;99.90
3846;DHT22;1938;50.812;7.738;2022-12-11T14:38:02;-1.20;99.90
3846;DHT22;1938;50.812;7.738;2022-12-11T14:40:35;-1.20;99.90
3846;DHT22;1938;50.812;7.738;2022-12-11T14:43:07;-1.20;99.90
3846;DHT22;1938;50.812;7.738;2022-12-11T14:45:38;-1.20;99.90
3846;DHT22;1938;50.812;7.738;2022-12-11T14:48:11;-1.30;99.90
3846;DHT22;1938;50.812;7.738;2022-12-11T14:50:41;-1.30;99.90
3846;DHT22;1938;50.812;7.738;2022-12-11T14:53:14;-1.30;99.90
3846;DHT22;1938;50.812;7.738;2022-12-11T14:55:41;-1.10;99.90
3846;DHT22;1938;50.812;7.738;2022-12-11T14:58:17;-1.10;99.90
3846;DHT22;1938;50.812;7.738;2022-12-11T15:00:43;-1.10;99.90
3846;DHT22;1938;50.812;7.738;2022-12-11T15:05:35;-1.30;99.90
3846;DHT22;1938;50.812;7.738;2022-12-11T15:08:25;-1.30;99.90
3846;DHT22;1938;50.812;7.738;2022-12-11T15:11:17;-1.40;99.90
3846;DHT22;1938;50.812;7.738;2022-12-11T15:16:15;-1.40;99.90
3846;DHT22;1938;50.812;7.738;2022-12-11T15:18:41;-1.40;99.90
3846;DHT22;1938;50.812;7.738;2022-12-11T15:21:08;-1.40;99.90
3846;DHT22;1938;50.812;7.738;2022-12-11T15:23:55;-1.40;99.90
3846;DHT22;1938;50.812;7.738;2022-12-11T15:26:32;-1.40;99.90
3846;DHT22;1938;50.812;7.738;2022-12-11T15:29:00;-1.30;99.90
3846;DHT22;1938;50.812;7.738;2022-12-11T15:31:31;-1.30;99.90
3846;DHT22;1938;50.812;7.738;2022-12-11T15:33:58;-1.80;99.90
3846;DHT22;1938;50.812;7.738;2022-12-11T15:38:57;-1.70;99.90
3846;DHT22;1938;50.812;7.738;2022-12-11T15:41:24;-1.70;99.90
3846;DHT22;1938;50.812;7.738;2022-12-11T15:43:54;-1.60;99.90
3846;DHT22;1938;50.812;7.738;2022-12-11T15:46:20;-1.40;99.90
3846;DHT22;1938;50.812;7.738;2022-12-11T15:48:49;-1.30;99.90
3846;DHT22;1938;50.812;7.738;2022-12-11T15:51:15;-1.70;99.90
3846;DHT22;1938;50.812;7.738;2022-12-11T15:53:41;-2.20;99.90
3846;DHT22;1938;50.812;7.738;2022-12-11T15:56:12;-2.10;99.90
3846;DHT22;1938;50.812;7.738;2022-12-11T15:58:40;-1.70;99.90
3846;DHT22;1938;50.812;7.738;2022-12-11T16:01:05;-1.60;99.90
3846;DHT22;1938;50.812;7.738;2022-12-11T16:03:31;-1.70;99.90
3846;DHT22;1938;50.812;7.738;2022-12-11T16:05:56;-1.70;99.90
3846;DHT22;1938;50.812;7.738;2022-12-11T16:08:23;-1.80;99.90
3846;DHT22;1938;50.812;7.738;2022-12-11T16:10:51;-1.80;99.90
3846;DHT22;1938;50.812;7.738;2022-12-11T16:13:16;-1.70;99.90
3846;DHT22;1938;50.812;7.738;2022-12-11T16:15:44;-1.70;99.90
3846;DHT22;1938;50.812;7.738;2022-12-11T16:18:12;-1.60;99.90
3846;DHT22;1938;50.812;7.738;2022-12-11T16:20:39;-1.60;99.90
3846;DHT22;1938;50.812;7.738;2022-12-11T16:23:05;-1.50;99.90
3846;DHT22;1938;50.812;7.738;2022-12-11T16:25:32;-1.50;99.90
3846;DHT22;1938;50.812;7.738;2022-12-11T16:28:00;-1.50;99.90
3846;DHT22;1938;50.812;7.738;2022-12-11T16:30:27;-1.40;99.90
3846;DHT22;1938;50.812;7.738;2022-12-11T16:32:54;-1.40;99.90
3846;DHT22;1938;50.812;7.738;2022-12-11T16:35:21;-1.30;99.90
3846;DHT22;1938;50.812;7.738;2022-12-11T16:37:53;-1.20;99.90
3846;DHT22;1938;50.812;7.738;2022-12-11T16:40:19;-1.10;99.90
3846;DHT22;1938;50.812;7.738;2022-12-11T16:42:45;-1.10;99.90
3846;DHT22;1938;50.812;7.738;2022-12-11T16:45:18;-1.00;99.90
3846;DHT22;1938;50.812;7.738;2022-12-11T16:47:44;-1.00;99.90
3846;DHT22;1938;50.812;7.738;2022-12-11T16:50:11;-0.90;99.90
3846;DHT22;1938;50.812;7.738;2022-12-11T16:52:38;-0.80;99.90
3846;DHT22;1938;50.812;7.738;2022-12-11T16:55:04;-0.70;99.90
3846;DHT22;1938;50.812;7.738;2022-12-11T16:57:30;-0.70;99.90
3846;DHT22;1938;50.812;7.738;2022-12-11T16:59:56;-0.70;99.90
3846;DHT22;1938;50.812;7.738;2022-12-11T17:02:21;-0.60;99.90
3846;DHT22;1938;50.812;7.738;2022-12-11T17:04:47;-0.60;99.90
3846;DHT22;1938;50.812;7.738;2022-12-11T17:07:13;-0.50;99.90
3846;DHT22;1938;50.812;7.738;2022-12-11T17:09:40;-0.40;99.90
3846;DHT22;1938;50.812;7.738;2022-12-11T17:12:06;-0.30;99.90
3846;DHT22;1938;50.812;7.738;2022-12-11T17:14:32;-0.20;99.90
3846;DHT22;1938;50.812;7.738;2022-12-11T17:16:58;-0.10;99.90
3846;DHT22;1938;50.812;7.738;2022-12-11T17:19:24;-0.20;99.90
3846;DHT22;1938;50.812;7.738;2022-12-11T17:21:51;-0.20;99.90
3846;DHT22;1938;50.812;7.738;2022-12-11T17:24:19;-0.10;99.90
3846;DHT22;1938;50.812;7.738;2022-12-11T17:26:45;-0.10;99.90
3846;DHT22;1938;50.812;7.738;2022-12-11T17:29:11;-0.10;99.90
3846;DHT22;1938;50.812;7.738;2022-12-11T17:31:38;-0.20;99.90
3846;DHT22;1938;50.812;7.738;2022-12-11T17:34:04;-0.20;99.90
3846;DHT22;1938;50.812;7.738;2022-12-11T17:36:30;-0.30;99.90
3846;DHT22;1938;50.812;7.738;2022-12-11T17:38:56;-0.20;99.90
3846;DHT22;1938;50.812;7.738;2022-12-11T17:41:22;-0.20;99.90
3846;DHT22;1938;50.812;7.738;2022-12-11T17:43:50;-0.20;99.90
3846;DHT22;1938;50.812;7.738;2022-12-11T17:46:16;-0.10;99.90
3846;DHT22;1938;50.812;7.738;2022-12-11T17:48:42;-0.10;99.90
3846;DHT22;1938;50.812;7.738;2022-12-11T17:51:11;-0.20;99.90
3846;DHT22;1938;50.812;7.738;2022-12-11T17:53:37;-0.20;99.90
3846;DHT22;1938;50.812;7.738;2022-12-11T17:56:06;-0.70;92.50
3846;DHT22;1938;50.812;7.738;2022-12-11T17:58:32;-1.20;99.90